sensor_id;sensor_type;location;lat;lon;timestamp;temperature;humidity
42421;DHT22;28063;48.140;11.588;2023-01-29T00:00:50;0.40;99.90
42421;DHT22;28063;48.140;11.588;2023-01-29T00:03:16;0.40;99.90
42421;DHT22;28063;48.140;11.588;2023-01-29T00:05:41;0.40;99.90
42421;DHT22;28063;48.140;11.588;2023-01-29T00:08:07;0.40;99.90
42421;DHT22;28063;48.140;11.588;2023-01-29T00:10:33;0.40;99.90
42421;DHT22;28063;48.140;11.588;2023-01-29T00:12:58;0.40;99.90
42421;DHT22;28063;48.140;11.588;2023-01-29T00:15:24;0.40;99.90
42421;DHT22;28063;48.140;11.588;2023-01-29T00:17:49;0.40;99.90
42421;DHT22;28063;48.140;11.588;2023-01-29T00:20:15;0.40;99.90
42421;DHT22;28063;48.140;11.588;2023-01-29T00:22:40;0.40;99.90
42421;DHT22;28063;48.140;11.588;2023-01-29T00:25:09;0.40;99.90
42421;DHT22;28063;48.140;11.588;2023-01-29T00:27:35;0.30;99.90
42421;DHT22;28063;48.140;11.588;2023-01-29T00:30:01;0.30;99.90
42421;DHT22;28063;48.140;11.588;2023-01-29T00:32:40;0.30;99.90
42421;DHT22;28063;48.140;11.588;2023-01-29T00:35:06;0.30;99.90
42421;DHT22;28063;48.140;11.588;2023-01-29T00:37:32;0.30;99.90
42421;DHT22;28063;48.140;11.588;2023-01-29T00:40:15;0.30;99.90
42421;DHT22;28063;48.140;11.588;2023-01-29T00:42:42;0.30;99.90
42421;DHT22;28063;48.140;11.588;2023-01-29T00:45:27;0.30;99.90
42421;DHT22;28063;48.140;11.588;2023-01-29T00:47:52;0.30;99.90
42421;DHT22;28063;48.140;11.588;2023-01-29T00:50:18;0.30;99.90
42421;DHT22;28063;48.140;11.588;2023-01-29T00:52:43;0.30;99.90
42421;DHT22;28063;48.140;11.588;2023-01-29T00:55:10;0.30;99.90
42421;DHT22;28063;48.140;11.588;2023-01-29T00:57:35;0.30;99.90
42421;DHT22;28063;48.140;11.588;2023-01-29T01:00:02;0.30;99.90
42421;DHT22;28063;48.140;11.588;2023-01-29T01:02:28;0.30;99.90
42421;DHT22;28063;48.140;11.588;2023-01-29T01:05:13;0.40;99.90
42421;DHT22;28063;48.140;11.588;2023-01-29T01:08:00;0.40;99.90
42421;DHT22;28063;48.140;11.588;2023-01-29T01:10:30;0.30;99.90
42421;DHT22;28063;48.140;11.588;2023-01-29T01:13:00;0.30;99.90
42421;DHT22;28063;48.140;11.588;2023-01-29T01:15:27;0.30;99.90
42421;DHT22;28063;48.140;11.588;2023-01-29T01:17:54;0.40;99.90
42421;DHT22;28063;48.140;11.588;2023-01-29T01:20:19;0.40;99.90
42421;DHT22;28063;48.140;11.588;2023-01-29T01:22:45;0.40;99.90
42421;DHT22;28063;48.140;11.588;2023-01-29T01:25:10;0.30;99.90
42421;DHT22;28063;48.140;11.588;2023-01-29T01:27:36;0.30;99.90
42421;DHT22;28063;48.140;11.588;2023-01-29T01:30:09;0.30;99.90
42421;DHT22;28063;48.140;11.588;2023-01-29T01:32:35;0.30;99.90
42421;DHT22;28063;48.140;11.588;2023-01-29T01:35:01;0.30;99.90
42421;DHT22;28063;48.140;11.588;2023-01-29T01:37:26;0.30;99.90
42421;DHT22;28063;48.140;11.588;2023-01-29T01:39:52;0.30;99.90
42421;DHT22;28063;48.140;11.588;2023-01-29T01:42:22;0.30;99.90
42421;DHT22;28063;48.140;11.588;2023-01-29T01:44:52;0.30;99.90
42421;DHT22;28063;48.140;11.588;2023-01-29T01:47:20;0.30;99.90
42421;DHT22;28063;48.140;11.588;2023-01-29T01:49:46;0.30;99.90
42421;DHT22;28063;48.140;11.588;2023-01-29T01:52:12;0.30;99.90
42421;DHT22;28063;48.140;11.588;2023-01-29T01:54:40;0.30;99.90
42421;DHT22;28063;48.140;11.588;2023-01-29T01:57:08;0.20;99.90
42421;DHT22;28063;48.140;11.588;2023-01-29T01:59:41;0.30;99.90
42421;DHT22;28063;48.140;11.588;2023-01-29T02:02:07;0.20;99.90
42421;DHT22;28063;48.140;11.588;2023-01-29T02:04:51;0.30;99.90
42421;DHT22;28063;48.140;11.588;2023-01-29T02:07:39;0.20;99.90
42421;DHT22;28063;48.140;11.588;2023-01-29T02:10:24;0.20;99.90
42421;DHT22;28063;48.140;11.588;2023-01-29T02:12:51;0.30;99.90
42421;DHT22;28063;48.140;11.588;2023-01-29T02:15:17;0.30;99.90
42421;DHT22;28063;48.140;11.588;2023-01-29T02:17:43;0.30;99.90
42421;DHT22;28063;48.140;11.588;2023-01-29T02:20:47;0.30;99.90
42421;DHT22;28063;48.140;11.588;2023-01-29T02:23:28;0.30;99.90
42421;DHT22;28063;48.140;11.588;2023-01-29T02:31:05;0.20;99.90
42421;DHT22;28063;48.140;11.588;2023-01-29T02:33:40;0.20;99.90
42421;DHT22;28063;48.140;11.588;2023-01-29T02:43:46;0.40;99.90
42421;DHT22;28063;48.140;11.588;2023-01-29T02:46:22;0.40;99.90
42421;DHT22;28063;48.140;11.588;2023-01-29T02:51:37;0.30;99.90
42421;DHT22;28063;48.140;11.588;2023-01-29T02:54:09;0.30;99.90
42421;DHT22;28063;48.140;11.588;2023-01-29T02:56:39;0.30;99.90
42421;DHT22;28063;48.140;11.588;2023-01-29T02:59:13;0.40;99.90
42421;DHT22;28063;48.140;11.588;2023-01-29T03:01:47;0.40;99.90
42421;DHT22;28063;48.140;11.588;2023-01-29T03:04:16;0.40;99.90
42421;DHT22;28063;48.140;11.588;2023-01-29T03:06:44;0.40;99.90
42421;DHT22;28063;48.140;11.588;2023-01-29T03:11:51;0.50;99.90
42421;DHT22;28063;48.140;11.588;2023-01-29T03:14:21;0.50;99.90
42421;DHT22;28063;48.140;11.588;2023-01-29T03:16:49;0.50;99.90
42421;DHT22;28063;48.140;11.588;2023-01-29T03:21:51;0.60;99.90
42421;DHT22;28063;48.140;11.588;2023-01-29T03:27:23;0.50;99.90
42421;DHT22;28063;48.140;11.588;2023-01-29T03:30:09;0.40;99.90
42421;DHT22;28063;48.140;11.588;2023-01-29T03:32:55;0.40;99.90
42421;DHT22;28063;48.140;11.588;2023-01-29T03:35:22;0.40;99.90
42421;DHT22;28063;48.140;11.588;2023-01-29T03:37:59;0.50;99.90
42421;DHT22;28063;48.140;11.588;2023-01-29T03:40:26;0.50;99.90
42421;DHT22;28063;48.140;11.588;2023-01-29T03:48:15;0.40;99.90
42421;DHT22;28063;48.140;11.588;2023-01-29T03:50:51;0.40;99.90
42421;DHT22;28063;48.140;11.588;2023-01-29T03:58:46;0.50;99.90
42421;DHT22;28063;48.140;11.588;2023-01-29T04:01:21;0.50;99.90
42421;DHT22;28063;48.140;11.588;2023-01-29T04:03:49;0.50;99.90
42421;DHT22;28063;48.140;11.588;2023-01-29T04:06:21;0.50;99.90
42421;DHT22;28063;48.140;11.588;2023-01-29T04:08:51;0.50;99.90
42421;DHT22;28063;48.140;11.588;2023-01-29T04:11:20;0.50;99.90
42421;DHT22;28063;48.140;11.588;2023-01-29T04:13:46;0.50;99.90
42421;DHT22;28063;48.140;11.588;2023-01-29T04:16:14;0.40;99.90
42421;DHT22;28063;48.140;11.588;2023-01-29T04:18:43;0.40;99.90
42421;DHT22;28063;48.140;11.588;2023-01-29T04:21:08;0.40;99.90
42421;DHT22;28063;48.140;11.588;2023-01-29T04:23:45;0.40;99.90
42421;DHT22;28063;48.140;11.588;2023-01-29T04:31:25;0.50;99.90
42421;DHT22;28063;48.140;11.588;2023-01-29T04:34:11;0.60;99.90
42421;DHT22;28063;48.140;11.588;2023-01-29T04:36:47;0.60;99.90
42421;DHT22;28063;48.140;11.588;2023-01-29T04:41:51;0.60;99.90
42421;DHT22;28063;48.140;11.588;2023-01-29T04:44:37;0.60;99.90
42421;DHT22;28063;48.140;11.588;2023-01-29T04:49:55;0.60;99.90
42421;DHT22;28063;48.140;11.588;2023-01-29T04:52:35;0.50;99.90
42421;DHT22;28063;48.140;11.588;2023-01-29T04:57:36;0.40;99.90
42421;DHT22;28063;48.140;11.588;2023-01-29T05:00:11;0.40;99.90
42421;DHT22;28063;48.140;11.588;2023-01-29T05:02:39;0.40;99.90
42421;DHT22;28063;48.140;11.588;2023-01-29T05:05:05;0.50;99.90
42421;DHT22;28063;48.140;11.588;2023-01-29T05:07:31;0.50;99.90
42421;DHT22;28063;48.140;11.588;2023-01-29T05:09:59;0.60;99.90
42421;DHT22;28063;48.140;11.588;2023-01-29T05:12:25;0.60;99.90
42421;DHT22;28063;48.140;11.588;2023-01-29T05:14:52;0.60;99.90
42421;DHT22;28063;48.140;11.588;2023-01-29T05:17:19;0.50;99.90
42421;DHT22;28063;48.140;11.588;2023-01-29T05:19:45;0.50;99.90
42421;DHT22;28063;48.140;11.588;2023-01-29T05:22:11;0.40;99.90
42421;DHT22;28063;48.140;11.588;2023-01-29T05:24:37;0.40;99.90
42421;DHT22;28063;48.140;11.588;2023-01-29T05:27:03;0.40;99.90
42421;DHT22;28063;48.140;11.588;2023-01-29T05:29:47;0.40;99.90
42421;DHT22;28063;48.140;11.588;2023-01-29T05:32:13;0.40;99.90
42421;DHT22;28063;48.140;11.588;2023-01-29T05:34:39;0.30;99.90
42421;DHT22;28063;48.140;11.588;2023-01-29T05:37:05;0.30;99.90
42421;DHT22;28063;48.140;11.588;2023-01-29T05:39:31;0.40;99.90
42421;DHT22;28063;48.140;11.588;2023-01-29T05:41:57;0.40;99.90
42421;DHT22;28063;48.140;11.588;2023-01-29T05:44:23;0.30;99.90
42421;DHT22;28063;48.140;11.588;2023-01-29T05:46:49;0.30;99.90
42421;DHT22;28063;48.140;11.588;2023-01-29T05:49:15;0.30;99.90
42421;DHT22;28063;48.140;11.588;2023-01-29T05:51:40;0.30;99.90
42421;DHT22;28063;48.140;11.588;2023-01-29T05:54:06;0.30;99.90
42421;DHT22;28063;48.140;11.588;2023-01-29T05:56:31;0.30;99.90
42421;DHT22;28063;48.140;11.588;2023-01-29T05:58:57;0.20;99.90
42421;DHT22;28063;48.140;11.588;2023-01-29T06:01:23;0.20;99.90
42421;DHT22;28063;48.140;11.588;2023-01-29T06:03:49;0.20;99.90
42421;DHT22;28063;48.140;11.588;2023-01-29T06:06:15;0.20;99.90
42421;DHT22;28063;48.140;11.588;2023-01-29T06:08:40;0.20;99.90
42421;DHT22;28063;48.140;11.588;2023-01-29T06:11:06;0.20;99.90
42421;DHT22;28063;48.140;11.588;2023-01-29T06:13:32;0.20;99.90
42421;DHT22;28063;48.140;11.588;2023-01-29T06:15:58;0.20;99.90
42421;DHT22;28063;48.140;11.588;2023-01-29T06:18:23;0.20;99.90
42421;DHT22;28063;48.140;11.588;2023-01-29T06:20:49;0.20;99.90
42421;DHT22;28063;48.140;11.588;2023-01-29T06:23:14;0.20;99.90
42421;DHT22;28063;48.140;11.588;2023-01-29T06:25:40;0.10;99.90
42421;DHT22;28063;48.140;11.588;2023-01-29T06:28:05;0.10;99.90
42421;DHT22;28063;48.140;11.588;2023-01-29T06:30:31;0.10;99.90
42421;DHT22;28063;48.140;11.588;2023-01-29T06:32:56;0.10;99.90
42421;DHT22;28063;48.140;11.588;2023-01-29T06:35:23;0.10;99.90
42421;DHT22;28063;48.140;11.588;2023-01-29T06:37:49;0.10;99.90
42421;DHT22;28063;48.140;11.588;2023-01-29T06:40:14;0.20;99.90
42421;DHT22;28063;48.140;11.588;2023-01-29T06:42:40;0.20;99.90
42421;DHT22;28063;48.140;11.588;2023-01-29T06:45:05;0.20;99.90
42421;DHT22;28063;48.140;11.588;2023-01-29T06:47:31;0.20;99.90
42421;DHT22;28063;48.140;11.588;2023-01-29T06:49:57;0.20;99.90
42421;DHT22;28063;48.140;11.588;2023-01-29T06:52:22;0.20;99.90
42421;DHT22;28063;48.140;11.588;2023-01-29T06:54:49;0.20;99.90
42421;DHT22;28063;48.140;11.588;2023-01-29T06:57:15;0.20;99.90
42421;DHT22;28063;48.140;11.588;2023-01-29T06:59:40;0.20;99.90
42421;DHT22;28063;48.140;11.588;2023-01-29T07:02:06;0.30;99.90
42421;DHT22;28063;48.140;11.588;2023-01-29T07:04:31;0.20;99.90
42421;DHT22;28063;48.140;11.588;2023-01-29T07:07:00;0.20;99.90
42421;DHT22;28063;48.140;11.588;2023-01-29T07:09:25;0.20;99.90
42421;DHT22;28063;48.140;11.588;2023-01-29T07:11:51;0.20;99.90
42421;DHT22;28063;48.140;11.588;2023-01-29T07:14:16;0.20;99.90
42421;DHT22;28063;48.140;11.588;2023-01-29T07:16:42;0.20;99.90
42421;DHT22;28063;48.140;11.588;2023-01-29T07:19:07;0.20;99.90
42421;DHT22;28063;48.140;11.588;2023-01-29T07:21:33;0.20;99.90
42421;DHT22;28063;48.140;11.588;2023-01-29T07:24:01;0.20;99.90
42421;DHT22;28063;48.140;11.588;2023-01-29T07:26:27;0.20;99.90
42421;DHT22;28063;48.140;11.588;2023-01-29T07:28:53;0.20;99.90
42421;DHT22;28063;48.140;11.588;2023-01-29T07:31:19;0.20;99.90
42421;DHT22;28063;48.140;11.588;2023-01-29T07:33:53;0.30;99.90
42421;DHT22;28063;48.140;11.588;2023-01-29T07:36:20;0.30;99.90
42421;DHT22;28063;48.140;11.588;2023-01-29T07:38:49;0.40;99.90
42421;DHT22;28063;48.140;11.588;2023-01-29T07:41:15;0.50;99.90
42421;DHT22;28063;48.140;11.588;2023-01-29T07:43:40;0.60;99.90
42421;DHT22;28063;48.140;11.588;2023-01-29T07:46:06;0.70;99.90
42421;DHT22;28063;48.140;11.588;2023-01-29T07:48:32;0.70;99.90
42421;DHT22;28063;48.140;11.588;2023-01-29T07:50:57;0.80;99.90
42421;DHT22;28063;48.140;11.588;2023-01-29T07:53:23;0.80;99.90
42421;DHT22;28063;48.140;11.588;2023-01-29T07:55:49;0.90;99.90
42421;DHT22;28063;48.140;11.588;2023-01-29T07:58:15;0.90;99.90
42421;DHT22;28063;48.140;11.588;2023-01-29T08:00:41;1.00;99.70
42421;DHT22;28063;48.140;11.588;2023-01-29T08:03:12;1.00;99.60
42421;DHT22;28063;48.140;11.588;2023-01-29T08:05:38;1.10;99.40
42421;DHT22;28063;48.140;11.588;2023-01-29T08:08:04;1.10;99.00
42421;DHT22;28063;48.140;11.588;2023-01-29T08:10:33;1.10;98.70
42421;DHT22;28063;48.140;11.588;2023-01-29T08:12:59;1.20;98.40
42421;DHT22;28063;48.140;11.588;2023-01-29T08:15:25;1.20;98.30
42421;DHT22;28063;48.140;11.588;2023-01-29T08:17:53;1.10;98.00
42421;DHT22;28063;48.140;11.588;2023-01-29T08:20:19;1.10;98.00
42421;DHT22;28063;48.140;11.588;2023-01-29T08:22:45;1.10;97.60
42421;DHT22;28063;48.140;11.588;2023-01-29T08:25:11;1.00;96.80
42421;DHT22;28063;48.140;11.588;2023-01-29T08:27:37;1.10;97.10
42421;DHT22;28063;48.140;11.588;2023-01-29T08:30:06;1.10;97.20
42421;DHT22;28063;48.140;11.588;2023-01-29T08:32:32;1.20;97.00
42421;DHT22;28063;48.140;11.588;2023-01-29T08:34:57;1.40;97.00
42421;DHT22;28063;48.140;11.588;2023-01-29T08:37:23;1.40;96.60
42421;DHT22;28063;48.140;11.588;2023-01-29T08:39:49;1.40;96.40
42421;DHT22;28063;48.140;11.588;2023-01-29T08:42:18;1.40;96.10
42421;DHT22;28063;48.140;11.588;2023-01-29T08:44:43;1.50;96.00
42421;DHT22;28063;48.140;11.588;2023-01-29T08:47:13;1.50;95.80
42421;DHT22;28063;48.140;11.588;2023-01-29T08:49:39;1.60;95.50
42421;DHT22;28063;48.140;11.588;2023-01-29T08:52:04;1.60;95.30
42421;DHT22;28063;48.140;11.588;2023-01-29T08:54:30;1.70;95.10
42421;DHT22;28063;48.140;11.588;2023-01-29T08:56:56;1.60;94.60
42421;DHT22;28063;48.140;11.588;2023-01-29T08:59:21;1.60;94.60
42421;DHT22;28063;48.140;11.588;2023-01-29T09:01:47;1.60;94.80
42421;DHT22;28063;48.140;11.588;2023-01-29T09:04:13;1.70;94.70
42421;DHT22;28063;48.140;11.588;2023-01-29T09:06:38;1.80;94.80
42421;DHT22;28063;48.140;11.588;2023-01-29T09:09:04;1.90;94.80
42421;DHT22;28063;48.140;11.588;2023-01-29T09:11:29;1.80;94.30
42421;DHT22;28063;48.140;11.588;2023-01-29T09:13:55;1.60;93.90
42421;DHT22;28063;48.140;11.588;2023-01-29T09:16:21;1.50;93.90
42421;DHT22;28063;48.140;11.588;2023-01-29T09:18:46;1.40;94.10
42421;DHT22;28063;48.140;11.588;2023-01-29T09:21:12;1.40;94.40
42421;DHT22;28063;48.140;11.588;2023-01-29T09:23:37;1.40;94.40
42421;DHT22;28063;48.140;11.588;2023-01-29T09:26:03;1.40;94.20
42421;DHT22;28063;48.140;11.588;2023-01-29T09:28:28;1.40;94.20
42421;DHT22;28063;48.140;11.588;2023-01-29T09:30:54;1.40;93.90
42421;DHT22;28063;48.140;11.588;2023-01-29T09:33:19;1.40;94.00
42421;DHT22;28063;48.140;11.588;2023-01-29T09:35:45;1.30;94.00
42421;DHT22;28063;48.140;11.588;2023-01-29T09:38:11;1.20;94.20
42421;DHT22;28063;48.140;11.588;2023-01-29T09:40:40;1.20;94.30
42421;DHT22;28063;48.140;11.588;2023-01-29T09:43:11;1.20;94.30
42421;DHT22;28063;48.140;11.588;2023-01-29T09:45:39;1.20;94.40
42421;DHT22;28063;48.140;11.588;2023-01-29T09:48:07;1.30;94.50
42421;DHT22;28063;48.140;11.588;2023-01-29T09:50:38;1.30;94.50
42421;DHT22;28063;48.140;11.588;2023-01-29T09:55:31;1.20;94.50
42421;DHT22;28063;48.140;11.588;2023-01-29T09:58:01;1.20;94.50
42421;DHT22;28063;48.140;11.588;2023-01-29T10:10:43;1.20;95.80
42421;DHT22;28063;48.140;11.588;2023-01-29T10:14:02;1.20;95.90
42421;DHT22;28063;48.140;11.588;2023-01-29T10:23:22;1.20;95.80
42421;DHT22;28063;48.140;11.588;2023-01-29T10:25:49;1.30;96.10
42421;DHT22;28063;48.140;11.588;2023-01-29T10:28:26;1.40;96.30
42421;DHT22;28063;48.140;11.588;2023-01-29T10:30:59;1.60;96.20
42421;DHT22;28063;48.140;11.588;2023-01-29T10:33:31;1.70;95.70
42421;DHT22;28063;48.140;11.588;2023-01-29T10:35:59;1.60;94.90
42421;DHT22;28063;48.140;11.588;2023-01-29T10:41:13;1.50;95.30
42421;DHT22;28063;48.140;11.588;2023-01-29T10:43:48;1.50;95.50
42421;DHT22;28063;48.140;11.588;2023-01-29T11:01:07;1.60;95.40
42421;DHT22;28063;48.140;11.588;2023-01-29T11:03:33;1.80;95.30
42421;DHT22;28063;48.140;11.588;2023-01-29T11:06:09;1.80;95.10
42421;DHT22;28063;48.140;11.588;2023-01-29T11:08:39;1.80;94.60
42421;DHT22;28063;48.140;11.588;2023-01-29T11:11:08;1.70;94.50
42421;DHT22;28063;48.140;11.588;2023-01-29T11:13:37;1.60;94.70
42421;DHT22;28063;48.140;11.588;2023-01-29T11:16:04;1.50;95.00
42421;DHT22;28063;48.140;11.588;2023-01-29T11:18:47;1.60;95.40
42421;DHT22;28063;48.140;11.588;2023-01-29T11:21:13;1.70;95.30
42421;DHT22;28063;48.140;11.588;2023-01-29T11:23:38;1.60;94.50
42421;DHT22;28063;48.140;11.588;2023-01-29T11:26:04;1.60;94.70
42421;DHT22;28063;48.140;11.588;2023-01-29T11:28:37;1.50;94.60
42421;DHT22;28063;48.140;11.588;2023-01-29T11:31:14;1.40;95.20
42421;DHT22;28063;48.140;11.588;2023-01-29T11:33:39;1.40;95.10
42421;DHT22;28063;48.140;11.588;2023-01-29T11:36:18;1.30;95.20
42421;DHT22;28063;48.140;11.588;2023-01-29T11:38:44;1.30;95.40
42421;DHT22;28063;48.140;11.588;2023-01-29T11:41:16;1.30;95.40
42421;DHT22;28063;48.140;11.588;2023-01-29T11:43:46;1.30;95.60
42421;DHT22;28063;48.140;11.588;2023-01-29T11:46:12;1.40;95.60
42421;DHT22;28063;48.140;11.588;2023-01-29T11:51:05;1.40;95.10
42421;DHT22;28063;48.140;11.588;2023-01-29T11:55:59;1.50;95.40
42421;DHT22;28063;48.140;11.588;2023-01-29T11:58:26;1.60;95.30
42421;DHT22;28063;48.140;11.588;2023-01-29T12:00:53;1.80;95.30
42421;DHT22;28063;48.140;11.588;2023-01-29T12:03:36;2.00;95.20
42421;DHT22;28063;48.140;11.588;2023-01-29T12:06:11;2.20;95.00
42421;DHT22;28063;48.140;11.588;2023-01-29T12:08:37;2.50;94.60
42421;DHT22;28063;48.140;11.588;2023-01-29T12:11:10;2.60;94.10
42421;DHT22;28063;48.140;11.588;2023-01-29T12:13:36;2.70;93.80
42421;DHT22;28063;48.140;11.588;2023-01-29T12:16:25;2.80;93.50
42421;DHT22;28063;48.140;11.588;2023-01-29T12:18:53;2.90;93.10
42421;DHT22;28063;48.140;11.588;2023-01-29T12:21:23;2.90;92.80
42421;DHT22;28063;48.140;11.588;2023-01-29T12:26:18;3.10;92.50
42421;DHT22;28063;48.140;11.588;2023-01-29T12:28:57;3.10;92.50
42421;DHT22;28063;48.140;11.588;2023-01-29T12:33:59;3.00;92.10
42421;DHT22;28063;48.140;11.588;2023-01-29T12:39:12;2.90;92.20
42421;DHT22;28063;48.140;11.588;2023-01-29T12:41:55;2.80;91.90
42421;DHT22;28063;48.140;11.588;2023-01-29T12:44:29;2.70;92.10
42421;DHT22;28063;48.140;11.588;2023-01-29T12:46:56;2.70;92.20
42421;DHT22;28063;48.140;11.588;2023-01-29T12:49:31;2.70;92.30
42421;DHT22;28063;48.140;11.588;2023-01-29T12:51:59;2.60;92.30
42421;DHT22;28063;48.140;11.588;2023-01-29T12:54:32;2.60;92.40
42421;DHT22;28063;48.140;11.588;2023-01-29T12:56:59;2.50;92.40
42421;DHT22;28063;48.140;11.588;2023-01-29T12:59:38;2.50;92.50
42421;DHT22;28063;48.140;11.588;2023-01-29T13:02:17;2.50;92.40
42421;DHT22;28063;48.140;11.588;2023-01-29T13:07:46;2.40;92.40
42421;DHT22;28063;48.140;11.588;2023-01-29T13:10:15;2.30;92.60
42421;DHT22;28063;48.140;11.588;2023-01-29T13:12:47;2.30;92.80
42421;DHT22;28063;48.140;11.588;2023-01-29T13:15:20;2.40;92.90
42421;DHT22;28063;48.140;11.588;2023-01-29T13:17:51;2.30;93.00
42421;DHT22;28063;48.140;11.588;2023-01-29T13:20:22;2.40;93.00
42421;DHT22;28063;48.140;11.588;2023-01-29T13:22:48;2.30;92.90
42421;DHT22;28063;48.140;11.588;2023-01-29T13:25:15;2.30;92.90
42421;DHT22;28063;48.140;11.588;2023-01-29T13:27:41;2.40;92.90
42421;DHT22;28063;48.140;11.588;2023-01-29T13:30:07;2.40;92.90
42421;DHT22;28063;48.140;11.588;2023-01-29T13:32:33;2.30;92.90
42421;DHT22;28063;48.140;11.588;2023-01-29T13:35:01;2.30;93.00
42421;DHT22;28063;48.140;11.588;2023-01-29T13:37:29;2.40;93.00
42421;DHT22;28063;48.140;11.588;2023-01-29T13:39:55;2.40;92.90
42421;DHT22;28063;48.140;11.588;2023-01-29T13:42:23;2.40;92.80
42421;DHT22;28063;48.140;11.588;2023-01-29T13:44:55;2.40;92.50
42421;DHT22;28063;48.140;11.588;2023-01-29T13:47:32;2.30;92.10
42421;DHT22;28063;48.140;11.588;2023-01-29T13:50:02;2.30;92.20
42421;DHT22;28063;48.140;11.588;2023-01-29T13:57:47;2.10;93.00
42421;DHT22;28063;48.140;11.588;2023-01-29T14:02:41;2.10;93.20
42421;DHT22;28063;48.140;11.588;2023-01-29T14:07:51;2.20;93.50
42421;DHT22;28063;48.140;11.588;2023-01-29T14:10:18;2.30;93.30
42421;DHT22;28063;48.140;11.588;2023-01-29T14:12:44;2.30;93.20
42421;DHT22;28063;48.140;11.588;2023-01-29T14:15:14;2.20;93.30
42421;DHT22;28063;48.140;11.588;2023-01-29T14:17:52;2.20;93.20
42421;DHT22;28063;48.140;11.588;2023-01-29T14:20:19;2.10;93.30
42421;DHT22;28063;48.140;11.588;2023-01-29T14:22:52;2.10;93.40
42421;DHT22;28063;48.140;11.588;2023-01-29T14:25:18;2.10;93.50
42421;DHT22;28063;48.140;11.588;2023-01-29T14:27:48;2.10;93.30
42421;DHT22;28063;48.140;11.588;2023-01-29T14:30:16;2.10;93.30
42421;DHT22;28063;48.140;11.588;2023-01-29T14:32:45;2.00;93.30
42421;DHT22;28063;48.140;11.588;2023-01-29T14:37:40;1.70;93.50
42421;DHT22;28063;48.140;11.588;2023-01-29T14:40:14;1.70;93.60
42421;DHT22;28063;48.140;11.588;2023-01-29T14:42:52;1.60;93.80
42421;DHT22;28063;48.140;11.588;2023-01-29T14:47:52;1.50;94.00
42421;DHT22;28063;48.140;11.588;2023-01-29T14:52:52;1.40;94.50
42421;DHT22;28063;48.140;11.588;2023-01-29T14:57:47;1.40;95.00
42421;DHT22;28063;48.140;11.588;2023-01-29T15:00:16;1.40;94.90
42421;DHT22;28063;48.140;11.588;2023-01-29T15:02:44;1.40;94.70
42421;DHT22;28063;48.140;11.588;2023-01-29T15:05:11;1.40;94.70
42421;DHT22;28063;48.140;11.588;2023-01-29T15:07:40;1.40;94.60
42421;DHT22;28063;48.140;11.588;2023-01-29T15:10:15;1.40;94.70
42421;DHT22;28063;48.140;11.588;2023-01-29T15:15:12;1.30;94.80
42421;DHT22;28063;48.140;11.588;2023-01-29T15:17:40;1.30;94.70
42421;DHT22;28063;48.140;11.588;2023-01-29T15:20:24;1.30;94.80
42421;DHT22;28063;48.140;11.588;2023-01-29T15:22:50;1.20;94.90
42421;DHT22;28063;48.140;11.588;2023-01-29T15:25:15;1.20;95.10
42421;DHT22;28063;48.140;11.588;2023-01-29T15:27:43;1.20;95.10
42421;DHT22;28063;48.140;11.588;2023-01-29T15:30:13;1.20;95.20
42421;DHT22;28063;48.140;11.588;2023-01-29T15:32:39;1.20;95.00
42421;DHT22;28063;48.140;11.588;2023-01-29T15:35:09;1.10;95.20
42421;DHT22;28063;48.140;11.588;2023-01-29T15:37:35;1.10;95.40
42421;DHT22;28063;48.140;11.588;2023-01-29T15:40:01;1.00;95.70
42421;DHT22;28063;48.140;11.588;2023-01-29T15:42:28;1.10;95.60
42421;DHT22;28063;48.140;11.588;2023-01-29T15:45:19;1.00;95.70
42421;DHT22;28063;48.140;11.588;2023-01-29T15:47:45;1.10;95.70
42421;DHT22;28063;48.140;11.588;2023-01-29T15:50:11;1.10;95.10
42421;DHT22;28063;48.140;11.588;2023-01-29T15:52:36;1.00;95.10
42421;DHT22;28063;48.140;11.588;2023-01-29T15:55:03;0.90;95.60
42421;DHT22;28063;48.140;11.588;2023-01-29T15:57:34;0.80;96.00
42421;DHT22;28063;48.140;11.588;2023-01-29T16:00:02;0.80;96.30
42421;DHT22;28063;48.140;11.588;2023-01-29T16:04:57;0.80;95.80
42421;DHT22;28063;48.140;11.588;2023-01-29T16:07:23;0.80;95.80
42421;DHT22;28063;48.140;11.588;2023-01-29T16:09:49;0.70;96.00
42421;DHT22;28063;48.140;11.588;2023-01-29T16:12:15;0.70;96.30
42421;DHT22;28063;48.140;11.588;2023-01-29T16:14:41;0.70;96.60
42421;DHT22;28063;48.140;11.588;2023-01-29T16:17:20;0.70;96.40
42421;DHT22;28063;48.140;11.588;2023-01-29T16:19:54;0.70;96.60
42421;DHT22;28063;48.140;11.588;2023-01-29T16:22:19;0.70;96.60
42421;DHT22;28063;48.140;11.588;2023-01-29T16:24:45;0.70;96.50
42421;DHT22;28063;48.140;11.588;2023-01-29T16:27:12;0.70;96.60
42421;DHT22;28063;48.140;11.588;2023-01-29T16:29:38;0.70;96.60
42421;DHT22;28063;48.140;11.588;2023-01-29T16:32:03;0.60;96.60
42421;DHT22;28063;48.140;11.588;2023-01-29T16:34:37;0.60;97.00
42421;DHT22;28063;48.140;11.588;2023-01-29T16:37:06;0.70;96.70
42421;DHT22;28063;48.140;11.588;2023-01-29T16:46:52;0.70;97.20
42421;DHT22;28063;48.140;11.588;2023-01-29T16:51:46;0.60;97.30
42421;DHT22;28063;48.140;11.588;2023-01-29T16:54:13;0.60;96.80
42421;DHT22;28063;48.140;11.588;2023-01-29T16:56:43;0.60;96.80
42421;DHT22;28063;48.140;11.588;2023-01-29T16:59:11;0.50;97.00
42421;DHT22;28063;48.140;11.588;2023-01-29T17:01:43;0.50;97.30
42421;DHT22;28063;48.140;11.588;2023-01-29T17:04:10;0.50;97.50
42421;DHT22;28063;48.140;11.588;2023-01-29T17:06:39;0.50;97.70
42421;DHT22;28063;48.140;11.588;2023-01-29T17:09:05;0.60;97.90
42421;DHT22;28063;48.140;11.588;2023-01-29T17:11:38;0.60;97.70
42421;DHT22;28063;48.140;11.588;2023-01-29T17:14:05;0.60;97.70
42421;DHT22;28063;48.140;11.588;2023-01-29T17:16:33;0.60;97.20
42421;DHT22;28063;48.140;11.588;2023-01-29T17:18:59;0.60;97.30
42421;DHT22;28063;48.140;11.588;2023-01-29T17:21:25;0.70;97.50
42421;DHT22;28063;48.140;11.588;2023-01-29T17:23:51;0.70;97.00
42421;DHT22;28063;48.140;11.588;2023-01-29T17:26:17;0.70;97.10
42421;DHT22;28063;48.140;11.588;2023-01-29T17:28:43;0.60;97.30
42421;DHT22;28063;48.140;11.588;2023-01-29T17:31:09;0.60;97.20
42421;DHT22;28063;48.140;11.588;2023-01-29T17:33:35;0.60;97.30
42421;DHT22;28063;48.140;11.588;2023-01-29T17:36:01;0.60;97.30
42421;DHT22;28063;48.140;11.588;2023-01-29T17:38:27;0.60;96.80
42421;DHT22;28063;48.140;11.588;2023-01-29T17:41:03;0.60;97.00
42421;DHT22;28063;48.140;11.588;2023-01-29T17:43:30;0.60;97.30
42421;DHT22;28063;48.140;11.588;2023-01-29T17:45:55;0.60;97.50
42421;DHT22;28063;48.140;11.588;2023-01-29T17:48:22;0.60;97.60
42421;DHT22;28063;48.140;11.588;2023-01-29T17:50:49;0.60;97.50
42421;DHT22;28063;48.140;11.588;2023-01-29T17:53:17;0.60;97.20
42421;DHT22;28063;48.140;11.588;2023-01-29T17:55:42;0.50;97.30